Time;durP1;ratioP1;P1;durP2;ratioP2;P2;SDS_P1;SDS_P2;PMS_P1;PMS_P2;Temp;Humidity;BMP_temperature;BMP_pressure;BME280_temperature;BME280_humidity;BME280_pressure;Samples;Min_cycle;Max_cycle;Signal;HPM_P1;HPM_P2
2021/08/31 00:01:55;;;;;;;14.43;11.30;;;;;;;16.22;100.00;96922.63;5087046;28;20050;-62
2021/08/31 00:04:22;;;;;;;14.80;11.35;;;;;;;16.12;100.00;96917.88;5087531;28;20067;-61
2021/08/31 00:06:50;;;;;;;18.38;11.50;;;;;;;16.16;100.00;96921.47;5085964;28;20052;-62
2021/08/31 00:09:16;;;;;;;19.45;12.27;;;;;;;16.15;100.00;96919.88;5087422;28;20048;-62
2021/08/31 00:11:44;;;;;;;22.15;11.82;;;;;;;16.14;100.00;96923.06;5087239;28;20060;-63
2021/08/31 00:14:12;;;;;;;16.05;11.98;;;;;;;15.70;100.00;96887.41;5047743;28;20079;-62
2021/08/31 00:16:40;;;;;;;19.40;12.05;;;;;;;15.95;100.00;96932.00;5086616;28;20048;-63
2021/08/31 00:19:07;;;;;;;16.27;11.00;;;;;;;15.80;100.00;96925.69;5086653;28;20052;-62
2021/08/31 00:21:34;;;;;;;16.73;10.75;;;;;;;15.79;100.00;96937.25;5086821;28;20048;-61
2021/08/31 00:24:01;;;;;;;15.57;11.07;;;;;;;15.71;100.00;96939.28;5086882;28;20048;-61
2021/08/31 00:26:28;;;;;;;18.38;12.13;;;;;;;15.71;100.00;96928.09;5086996;28;20052;-61
2021/08/31 00:28:55;;;;;;;19.92;12.45;;;;;;;15.39;100.00;96888.38;5085471;28;20566;-61
2021/08/31 00:31:21;;;;;;;15.52;11.25;;;;;;;15.73;100.00;96930.50;5085113;28;20059;-62
2021/08/31 00:33:48;;;;;;;18.13;11.23;;;;;;;15.75;100.00;96944.84;5059871;28;20069;-62
2021/08/31 00:36:15;;;;;;;15.00;11.07;;;;;;;15.25;100.00;96880.03;5085351;28;20056;-61
2021/08/31 00:38:42;;;;;;;15.88;11.13;;;;;;;15.09;100.00;96860.16;5084863;28;20048;-62
2021/08/31 00:41:08;;;;;;;22.45;11.35;;;;;;;15.64;100.00;96939.31;5086239;28;20055;-62
2021/08/31 00:43:43;;;;;;;18.45;11.70;;;;;;;15.59;100.00;96936.94;5086284;28;20420;-62
2021/08/31 00:46:12;;;;;;;21.08;11.80;;;;;;;15.58;100.00;96940.94;5086413;28;20052;-60
2021/08/31 00:48:40;;;;;;;16.42;10.70;;;;;;;15.72;100.00;96942.88;5086171;28;20044;-62
2021/08/31 00:51:11;;;;;;;16.65;11.07;;;;;;;15.23;100.00;96873.25;5086048;28;20056;-62
2021/08/31 00:53:39;;;;;;;19.02;11.43;;;;;;;15.57;100.00;96944.91;5084879;28;20056;-61
2021/08/31 00:56:08;;;;;;;20.17;12.15;;;;;;;15.49;100.00;96937.78;5086173;28;20048;-63
2021/08/31 00:58:35;;;;;;;16.70;11.27;;;;;;;15.46;100.00;96916.25;5085664;28;20056;-62
2021/08/31 01:01:02;;;;;;;20.17;10.75;;;;;;;15.62;100.00;96935.31;5084854;28;20427;-61
2021/08/31 01:03:29;;;;;;;21.65;10.63;;;;;;;14.89;100.00;96822.78;5086453;28;20088;-61
2021/08/31 01:06:01;;;;;;;22.38;11.50;;;;;;;15.38;100.00;96911.09;5084805;28;20051;-62
2021/08/31 01:08:31;;;;;;;20.42;11.43;;;;;;;15.44;100.00;96887.97;5084644;28;20050;-61
2021/08/31 01:10:59;;;;;;;19.33;10.88;;;;;;;15.63;100.00;96929.38;5085873;28;20149;-62
2021/08/31 01:13:29;;;;;;;22.67;12.32;;;;;;;15.72;100.00;96932.50;5085621;28;20048;-62
2021/08/31 01:15:56;;;;;;;17.73;11.82;;;;;;;15.67;100.00;96927.34;5086556;28;20171;-60
2021/08/31 01:18:23;;;;;;;20.65;12.35;;;;;;;15.70;100.00;96943.28;5085657;28;20086;-61
2021/08/31 01:20:54;;;;;;;18.45;11.43;;;;;;;15.60;100.00;96927.34;5085517;28;20052;-61
2021/08/31 01:23:22;;;;;;;20.92;11.93;;;;;;;15.57;100.00;96939.34;5084038;28;20052;-61
2021/08/31 01:25:49;;;;;;;20.25;12.82;;;;;;;15.12;100.00;96867.72;5085602;28;20056;-62
2021/08/31 01:28:26;;;;;;;19.60;11.48;;;;;;;15.69;100.00;96947.28;5085318;28;20051;-61
2021/08/31 01:30:54;;;;;;;17.73;11.25;;;;;;;15.41;100.00;96901.94;5085804;28;20156;-61
2021/08/31 01:33:26;;;;;;;21.60;11.63;;;;;;;15.54;100.00;96928.97;5085638;28;20055;-62
2021/08/31 01:35:53;;;;;;;17.20;12.00;;;;;;;15.31;100.00;96891.56;5085804;28;20052;-62
2021/08/31 01:38:20;;;;;;;20.15;10.85;;;;;;;15.63;100.00;96948.91;5085326;28;20070;-62
2021/08/31 01:40:47;;;;;;;19.20;10.57;;;;;;;15.59;100.00;96944.50;5083585;28;20058;-61
2021/08/31 01:43:25;;;;;;;15.63;10.10;;;;;;;15.23;100.00;96898.38;5085656;28;20055;-62
2021/08/31 01:45:53;;;;;;;17.15;10.82;;;;;;;15.54;100.00;96939.38;5085028;28;20552;-63
2021/08/31 01:48:20;;;;;;;17.92;10.48;;;;;;;15.45;100.00;96945.38;5085288;28;20079;-62
2021/08/31 01:50:47;;;;;;;19.13;11.57;;;;;;;15.46;100.00;96943.38;5085214;28;20058;-60
2021/08/31 01:53:14;;;;;;;14.63;10.55;;;;;;;15.06;100.00;96902.81;5083719;28;20518;-61
2021/08/31 01:55:41;;;;;;;18.85;11.32;;;;;;;15.10;100.00;96895.22;5085075;28;20043;-62
2021/08/31 01:58:08;;;;;;;16.63;11.55;;;;;;;15.34;100.00;96941.78;5084773;28;20064;-61
2021/08/31 02:00:35;;;;;;;19.40;11.38;;;;;;;15.25;100.00;96938.66;5084974;28;20122;-62
2021/08/31 02:03:02;;;;;;;19.13;11.77;;;;;;;14.70;100.00;96851.13;5083295;28;20048;-61
2021/08/31 02:05:29;;;;;;;18.67;11.48;;;;;;;15.08;100.00;96950.63;5085080;28;20076;-61
2021/08/31 02:07:55;;;;;;;15.02;10.55;;;;;;;14.62;100.00;96867.03;5083490;28;20044;-62
2021/08/31 02:10:22;;;;;;;17.10;11.82;;;;;;;14.99;100.00;96919.56;5084079;28;20051;-62
2021/08/31 02:12:49;;;;;;;17.80;11.50;;;;;;;15.05;100.00;96940.28;5084728;28;20050;-60
2021/08/31 02:15:16;;;;;;;17.17;12.15;;;;;;;14.83;100.00;96880.16;5084953;28;20502;-62
2021/08/31 02:17:43;;;;;;;17.15;11.85;;;;;;;14.96;100.00;96904.44;5084724;28;20062;-62
2021/08/31 02:20:11;;;;;;;16.65;13.18;;;;;;;15.17;100.00;96934.28;5083085;28;20047;-62
2021/08/31 02:22:39;;;;;;;19.15;13.55;;;;;;;15.15;100.00;96933.88;5084698;28;20065;-62
2021/08/31 02:25:06;;;;;;;20.90;13.93;;;;;;;15.16;100.00;96929.88;5083394;28;20422;-63
2021/08/31 02:27:33;;;;;;;18.33;14.23;;;;;;;14.40;100.00;96826.47;5084804;28;20103;-62
2021/08/31 02:30:00;;;;;;;17.98;12.77;;;;;;;15.15;100.00;96933.88;5084863;28;20063;-62
2021/08/31 02:32:27;;;;;;;17.48;11.90;;;;;;;15.15;100.00;96945.03;5084619;28;20418;-64
2021/08/31 02:34:54;;;;;;;16.40;11.88;;;;;;;15.06;100.00;96948.22;5084534;28;20054;-62
2021/08/31 02:37:20;;;;;;;22.00;11.48;;;;;;;14.66;100.00;96873.44;5084360;28;20047;-63
2021/08/31 02:39:47;;;;;;;18.33;12.55;;;;;;;15.13;100.00;96941.84;5084383;28;20059;-63
2021/08/31 02:42:14;;;;;;;19.42;12.35;;;;;;;14.91;100.00;96929.13;5084953;28;20059;-62
2021/08/31 02:44:41;;;;;;;15.57;11.57;;;;;;;14.69;100.00;96894.13;5084650;28;20545;-63
2021/08/31 02:47:08;;;;;;;19.38;12.25;;;;;;;14.94;100.00;96945.06;5082911;28;20056;-64
2021/08/31 02:49:34;;;;;;;26.02;12.20;;;;;;;14.58;100.00;96898.91;5084751;28;20067;-63
2021/08/31 02:52:01;;;;;;;16.63;11.60;;;;;;;14.77;100.00;96934.75;5084496;28;20048;-63
2021/08/31 02:54:28;;;;;;;22.77;11.27;;;;;;;15.02;100.00;96953.03;5084549;28;20071;-62
2021/08/31 02:56:55;;;;;;;17.35;11.20;;;;;;;15.02;100.00;96941.06;5084238;28;20060;-59
2021/08/31 02:59:22;;;;;;;19.00;10.52;;;;;;;15.13;100.00;96953.00;5084038;28;20052;-63
2021/08/31 03:02:07;;;;;;;18.30;11.05;;;;;;;15.20;100.00;96964.16;5082764;28;20052;-63
2021/08/31 03:04:40;;;;;;;17.02;10.82;;;;;;;15.04;100.00;96955.44;5084215;28;20047;-62
2021/08/31 03:07:09;;;;;;;19.80;10.88;;;;;;;14.97;100.00;96955.41;5084035;28;20502;-63
2021/08/31 03:09:36;;;;;;;15.25;12.10;;;;;;;15.04;100.00;96956.22;5084354;28;20051;-62
2021/08/31 03:12:03;;;;;;;17.35;11.00;;;;;;;15.10;100.00;96964.97;5083963;28;20052;-63
2021/08/31 03:14:30;;;;;;;16.30;11.68;;;;;;;14.83;100.00;96921.97;5084116;28;20064;-61
2021/08/31 03:16:57;;;;;;;20.63;11.38;;;;;;;15.04;100.00;96966.59;5082427;28;20056;-62
2021/08/31 03:19:25;;;;;;;19.90;11.13;;;;;;;14.71;100.00;96914.03;5083866;28;20603;-63
2021/08/31 03:21:53;;;;;;;16.10;11.00;;;;;;;14.96;100.00;96965.00;5082721;28;20052;-62
2021/08/31 03:24:20;;;;;;;18.30;11.60;;;;;;;14.91;100.00;96969.00;5084365;28;20044;-62
2021/08/31 03:26:48;;;;;;;18.15;11.80;;;;;;;14.99;100.00;96966.97;5082729;28;20060;-63
2021/08/31 03:29:14;;;;;;;16.92;11.98;;;;;;;14.91;100.00;96962.59;5083967;28;20044;-62
2021/08/31 03:31:41;;;;;;;15.52;11.60;;;;;;;14.83;100.00;96966.59;5082636;28;20055;-62
2021/08/31 03:34:08;;;;;;;19.50;11.05;;;;;;;14.73;100.00;96967.44;5083682;28;20063;-63
2021/08/31 03:36:35;;;;;;;18.05;11.18;;;;;;;14.62;100.00;96933.19;5083399;28;20044;-63
2021/08/31 03:39:03;;;;;;;21.65;11.85;;;;;;;14.85;100.00;96972.59;5083662;28;20070;-62
2021/08/31 03:41:30;;;;;;;19.13;10.27;;;;;;;14.79;100.00;96966.63;5083938;28;20051;-62
2021/08/31 03:43:57;;;;;;;17.05;11.55;;;;;;;14.50;100.00;96927.97;5082060;28;20059;-62
2021/08/31 03:46:24;;;;;;;16.70;10.88;;;;;;;14.81;100.00;96977.38;5081671;28;20510;-62
2021/08/31 03:48:51;;;;;;;21.27;10.68;;;;;;;14.70;100.00;96979.38;5083597;28;20246;-62
2021/08/31 03:51:18;;;;;;;16.20;10.57;;;;;;;14.05;100.00;96890.53;5081904;28;20048;-62
2021/08/31 03:53:44;;;;;;;15.40;10.20;;;;;;;14.71;100.00;96992.13;5081800;28;20052;-62
2021/08/31 03:56:11;;;;;;;21.67;11.07;;;;;;;14.52;100.00;96962.66;5083588;28;20052;-61
2021/08/31 03:58:38;;;;;;;23.45;10.45;;;;;;;14.81;100.00;97019.22;5083578;28;20060;-63
2021/08/31 04:01:05;;;;;;;14.27;10.23;;;;;;;14.63;100.00;96979.38;5081846;28;20048;-63
2021/08/31 04:03:31;;;;;;;19.20;11.38;;;;;;;14.64;100.00;96986.53;5082022;28;20439;-63
2021/08/31 04:05:58;;;;;;;18.80;11.30;;;;;;;14.80;100.00;97003.66;5082597;28;20135;-61
2021/08/31 04:08:25;;;;;;;19.05;11.93;;;;;;;14.78;100.00;97006.03;5081927;28;20140;-63
2021/08/31 04:10:52;;;;;;;20.65;10.90;;;;;;;14.82;100.00;97004.06;5082832;28;20062;-62
2021/08/31 04:13:19;;;;;;;19.25;9.95;;;;;;;14.83;100.00;97008.44;5083292;28;20052;-63
2021/08/31 04:15:49;;;;;;;15.00;10.02;;;;;;;14.85;100.00;97008.84;5083096;28;20059;-61
2021/08/31 04:18:15;;;;;;;18.98;10.25;;;;;;;14.87;100.00;97006.47;5082885;28;20051;-64
2021/08/31 04:20:42;;;;;;;16.80;10.48;;;;;;;14.86;100.00;97013.22;5082631;28;20052;-62
2021/08/31 04:23:09;;;;;;;19.75;10.60;;;;;;;14.83;100.00;97008.44;5082977;28;20059;-62
2021/08/31 04:25:36;;;;;;;20.42;11.63;;;;;;;14.41;100.00;96952.69;5082708;28;20697;-62
2021/08/31 04:28:03;;;;;;;19.63;11.75;;;;;;;14.69;100.00;96988.91;5082895;28;20052;-60
2021/08/31 04:30:30;;;;;;;21.35;13.15;;;;;;;14.46;100.00;96950.28;5083276;28;20520;-61
2021/08/31 04:32:58;;;;;;;23.25;12.20;;;;;;;15.04;100.00;97023.19;5083282;28;20503;-62
2021/08/31 04:35:25;;;;;;;20.05;13.30;;;;;;;14.67;100.00;96957.84;5086472;28;20044;-62
2021/08/31 04:37:52;;;;;;;20.65;13.68;;;;;;;15.11;100.00;97027.97;5086349;28;20074;-62
2021/08/31 04:40:19;;;;;;;20.48;12.05;;;;;;;15.16;100.00;97019.16;5086626;28;20413;-62
2021/08/31 04:42:46;;;;;;;24.52;13.82;;;;;;;14.88;100.00;96957.84;5086067;28;20058;-63
2021/08/31 04:45:12;;;;;;;22.00;12.77;;;;;;;15.51;100.00;97030.31;5086409;28;20486;-62
2021/08/31 04:47:40;;;;;;;20.30;13.48;;;;;;;15.80;100.00;97031.00;5085922;28;20044;-62
2021/08/31 04:50:08;;;;;;;20.50;12.75;;;;;;;15.36;100.00;96945.00;5087151;28;20110;-62
2021/08/31 04:52:35;;;;;;;21.90;12.68;;;;;;;15.97;99.87;97019.78;5086326;28;20052;-62
2021/08/31 04:55:03;;;;;;;17.95;12.00;;;;;;;16.10;100.00;97022.91;5086263;28;20087;-62
2021/08/31 04:57:29;;;;;;;18.33;12.98;;;;;;;16.42;99.18;97031.91;5086136;28;20056;-61
2021/08/31 04:59:56;;;;;;;19.25;12.50;;;;;;;16.48;96.76;96994.75;5086221;28;20048;-62
2021/08/31 05:02:23;;;;;;;17.77;11.48;;;;;;;16.96;94.04;97035.97;5085820;28;20530;-62
2021/08/31 05:04:51;;;;;;;17.85;11.82;;;;;;;16.82;93.76;96985.72;5085951;28;20509;-63
2021/08/31 05:07:18;;;;;;;18.42;10.90;;;;;;;17.18;92.50;97028.97;5086503;28;20063;-61
2021/08/31 05:09:45;;;;;;;15.57;11.52;;;;;;;17.04;93.24;97035.47;5086138;28;20058;-62
2021/08/31 05:12:12;;;;;;;15.85;11.05;;;;;;;17.17;94.25;97019.78;5086019;28;20056;-63
2021/08/31 05:14:38;;;;;;;17.35;11.40;;;;;;;16.92;93.40;96970.81;5086189;28;20593;-62
2021/08/31 05:17:05;;;;;;;20.80;11.55;;;;;;;17.37;93.44;97034.00;5085625;28;20058;-63
2021/08/31 05:19:33;;;;;;;22.02;12.25;;;;;;;17.45;93.50;97027.16;5085823;28;20063;-63
2021/08/31 05:22:00;;;;;;;20.00;13.05;;;;;;;17.18;91.96;96956.19;5084119;28;20441;-62
2021/08/31 05:24:32;;;;;;;14.98;11.20;;;;;;;17.81;91.02;97031.16;5085991;28;20047;-65
2021/08/31 05:26:59;;;;;;;18.85;11.55;;;;;;;17.95;90.81;97030.97;5085320;28;20044;-63
2021/08/31 05:29:26;;;;;;;16.42;11.50;;;;;;;18.07;89.73;97022.81;5085595;28;20067;-64
2021/08/31 05:31:53;;;;;;;18.73;11.70;;;;;;;18.18;87.90;97025.47;5085608;28;20048;-64
2021/08/31 05:34:19;;;;;;;17.10;12.68;;;;;;;18.23;86.20;97002.59;5085603;28;20048;-63
2021/08/31 05:36:46;;;;;;;17.00;12.10;;;;;;;18.25;85.72;96994.56;5083764;28;20048;-63
2021/08/31 05:39:13;;;;;;;23.63;12.90;;;;;;;18.63;84.79;97021.28;5085872;28;20540;-63
2021/08/31 05:41:40;;;;;;;18.13;12.07;;;;;;;18.65;83.71;97018.81;5085606;28;20055;-62
2021/08/31 05:44:07;;;;;;;17.95;12.40;;;;;;;18.51;83.88;96990.22;5083447;28;20055;-64
2021/08/31 05:46:34;;;;;;;21.63;12.52;;;;;;;18.71;84.35;96982.69;5082445;28;20052;-63
2021/08/31 05:49:01;;;;;;;17.25;11.45;;;;;;;18.96;81.55;97017.56;5083735;28;20521;-62
2021/08/31 05:51:27;;;;;;;17.70;11.23;;;;;;;18.71;80.74;96937.78;5084295;28;20104;-64
2021/08/31 05:53:55;;;;;;;29.08;18.40;;;;;;;19.23;81.37;97015.50;5082335;28;20425;-62
2021/08/31 05:56:22;;;;;;;27.50;16.92;;;;;;;19.37;81.98;97020.09;5084333;28;20056;-63
2021/08/31 05:58:49;;;;;;;20.20;12.93;;;;;;;19.54;80.67;97002.91;5085086;28;20070;-62
2021/08/31 06:01:16;;;;;;;21.27;12.00;;;;;;;19.71;79.79;97005.81;5084215;28;20101;-63
2021/08/31 06:03:45;;;;;;;20.50;10.45;;;;;;;19.26;78.53;96938.81;5084849;28;20050;-64
2021/08/31 06:06:14;;;;;;;17.77;11.15;;;;;;;19.80;76.58;97003.22;5084793;28;20052;-64
2021/08/31 06:08:41;;;;;;;19.10;10.60;;;;;;;19.78;76.62;96988.78;5084911;28;20123;-62
2021/08/31 06:11:08;;;;;;;25.15;17.23;;;;;;;18.22;76.73;96720.59;5085182;28;20056;-62
2021/08/31 06:13:36;;;;;;;14.90;11.20;;;;;;;19.73;75.64;96944.34;5084417;28;20126;-65
2021/08/31 06:16:03;;;;;;;19.50;10.68;;;;;;;20.26;74.96;96974.97;5084529;28;20052;-61
2021/08/31 06:18:30;;;;;;;13.57;10.27;;;;;;;20.62;74.62;97001.06;5083273;28;20079;-63
2021/08/31 06:20:58;;;;;;;11.25;9.70;;;;;;;20.65;73.03;97003.00;5083089;28;20059;-63
2021/08/31 06:23:24;;;;;;;16.08;9.82;;;;;;;20.85;72.50;97006.56;5084446;28;20048;-62
2021/08/31 06:25:51;;;;;;;14.30;9.38;;;;;;;21.02;70.53;96999.75;5083803;28;20561;-63
2021/08/31 06:28:18;;;;;;;12.88;9.23;;;;;;;21.04;69.00;96996.50;5084960;28;20426;-62
2021/08/31 06:30:44;;;;;;;14.35;10.57;;;;;;;21.11;68.22;96997.09;5083835;28;20537;-61
2021/08/31 06:33:11;;;;;;;11.68;9.48;;;;;;;21.21;68.79;97001.69;5084021;28;20044;-63
2021/08/31 06:35:38;;;;;;;11.75;8.52;;;;;;;21.36;66.61;97000.06;5083953;28;20052;-64
2021/08/31 06:38:04;;;;;;;12.85;9.45;;;;;;;21.35;64.68;96973.13;5082383;28;20059;-62
2021/08/31 06:40:31;;;;;;;10.63;8.98;;;;;;;21.66;65.50;96999.66;5084111;28;20094;-64
2021/08/31 06:42:58;;;;;;;15.52;9.50;;;;;;;21.81;66.02;96995.28;5084452;28;20070;-62
2021/08/31 06:45:24;;;;;;;16.38;8.75;;;;;;;21.84;64.51;96987.94;5082622;28;20104;-65
2021/08/31 06:47:51;;;;;;;11.57;9.23;;;;;;;21.72;63.14;96958.41;5084788;28;20524;-62
2021/08/31 06:50:19;;;;;;;12.10;9.18;;;;;;;22.07;63.16;96988.47;5085846;28;20063;-62
2021/08/31 06:52:48;;;;;;;13.43;9.68;;;;;;;22.27;63.99;97003.19;5087521;28;20048;-62
2021/08/31 06:55:22;;;;;;;10.48;8.60;;;;;;;22.33;62.70;96984.47;5084207;28;20383;-61
2021/08/31 06:57:48;;;;;;;11.27;8.88;;;;;;;22.39;59.73;97008.06;5081592;28;20063;-62
2021/08/31 07:00:34;;;;;;;11.45;8.65;;;;;;;22.55;59.78;97007.22;5084079;28;20047;-63
2021/08/31 07:03:02;;;;;;;15.98;9.00;;;;;;;21.04;61.84;96759.88;5084215;28;20055;-63
2021/08/31 07:05:32;;;;;;;10.23;8.73;;;;;;;22.77;61.14;97010.16;5083379;28;20047;-62
2021/08/31 07:08:00;;;;;;;14.18;9.63;;;;;;;22.98;61.54;97001.03;5085100;28;20062;-63
2021/08/31 07:10:27;;;;;;;12.55;9.27;;;;;;;23.08;62.52;96991.41;5082615;28;21180;-61
2021/08/31 07:12:54;;;;;;;11.30;8.93;;;;;;;22.97;61.11;96959.91;5084173;28;20078;-62
2021/08/31 07:15:21;;;;;;;11.30;9.07;;;;;;;22.88;61.00;96979.53;5084153;28;20048;-61
2021/08/31 07:17:47;;;;;;;12.90;8.90;;;;;;;23.13;59.41;96982.34;5084004;28;20109;-63
2021/08/31 07:20:15;;;;;;;11.82;8.95;;;;;;;23.27;59.20;96987.56;5081982;28;20076;-64
2021/08/31 07:22:42;;;;;;;10.82;9.52;;;;;;;23.34;57.48;96971.16;5084248;28;20048;-63
2021/08/31 07:25:09;;;;;;;9.63;8.63;;;;;;;23.28;57.42;96983.50;5083548;28;20056;-62
2021/08/31 07:27:37;;;;;;;16.00;8.77;;;;;;;23.36;58.19;96991.25;5082588;28;20201;-62
2021/08/31 07:30:05;;;;;;;10.13;9.07;;;;;;;23.01;59.38;96991.63;5083794;28;20143;-63
2021/08/31 07:32:32;;;;;;;9.88;8.00;;;;;;;22.83;58.93;96985.75;5082128;28;20062;-63
2021/08/31 07:34:59;;;;;;;10.57;8.55;;;;;;;23.07;58.14;96962.34;5082250;28;20551;-62
2021/08/31 07:37:26;;;;;;;10.77;8.30;;;;;;;23.10;56.64;96921.09;5082373;28;20109;-63
2021/08/31 07:39:53;;;;;;;14.95;11.80;;;;;;;23.50;55.45;96947.59;5081674;28;20174;-62
2021/08/31 07:42:20;;;;;;;11.93;9.90;;;;;;;23.89;56.53;96989.41;5081726;28;20052;-64
2021/08/31 07:44:47;;;;;;;9.68;8.63;;;;;;;23.67;54.84;96991.41;5083280;28;20052;-63
2021/08/31 07:47:15;;;;;;;9.73;8.80;;;;;;;23.74;54.13;96979.84;5082952;28;20748;-62
2021/08/31 07:50:00;;;;;;;10.68;8.43;;;;;;;23.95;52.55;96969.81;5084070;28;20091;-62
2021/08/31 07:52:27;;;;;;;9.98;9.00;;;;;;;23.75;53.89;96981.44;5083757;28;20048;-63
2021/08/31 07:54:54;;;;;;;10.77;8.15;;;;;;;23.95;52.78;96987.56;5083352;28;20063;-63
2021/08/31 07:57:20;;;;;;;12.52;9.32;;;;;;;23.97;53.17;96979.44;5082835;28;20052;-62
2021/08/31 07:59:47;;;;;;;15.30;9.45;;;;;;;24.19;53.85;96965.28;5081166;28;20082;-63
2021/08/31 08:02:14;;;;;;;11.27;8.82;;;;;;;24.59;54.64;96972.59;5081426;28;20064;-63
2021/08/31 08:04:41;;;;;;;10.75;9.00;;;;;;;23.80;55.52;96975.19;5083620;28;20063;-62
2021/08/31 08:07:12;;;;;;;9.38;8.38;;;;;;;24.26;56.06;96979.97;5084542;28;20044;-63
2021/08/31 08:09:39;;;;;;;10.70;9.60;;;;;;;24.42;54.88;96974.06;5085657;28;20077;-63
2021/08/31 08:12:06;;;;;;;11.25;9.10;;;;;;;24.73;52.99;96974.09;5086864;28;20087;-63
2021/08/31 08:14:33;;;;;;;11.13;9.10;;;;;;;24.66;53.52;96969.50;5085023;28;20442;-63
2021/08/31 08:16:59;;;;;;;13.02;8.90;;;;;;;24.70;52.84;96953.19;5086867;28;20051;-62
2021/08/31 08:19:26;;;;;;;10.75;9.02;;;;;;;24.93;51.67;96954.66;5086583;28;20072;-64
2021/08/31 08:21:53;;;;;;;15.45;9.52;;;;;;;25.09;51.78;96963.69;5087221;28;20048;-63
2021/08/31 08:24:19;;;;;;;10.75;9.00;;;;;;;25.16;52.71;96957.75;5086949;28;20052;-64
2021/08/31 08:26:46;;;;;;;10.77;9.68;;;;;;;25.51;52.33;96960.34;5087001;28;20094;-63
2021/08/31 08:29:13;;;;;;;12.23;9.07;;;;;;;25.11;52.25;96920.72;5086180;28;20418;-62
2021/08/31 08:31:45;;;;;;;10.50;8.90;;;;;;;25.61;52.41;96953.44;5086609;28;20121;-63
2021/08/31 08:34:12;;;;;;;9.98;8.98;;;;;;;25.65;51.48;96937.03;5086301;28;20514;-63
2021/08/31 08:36:39;;;;;;;9.43;8.63;;;;;;;25.91;50.86;96955.34;5086874;28;20111;-62
2021/08/31 08:39:06;;;;;;;8.65;7.60;;;;;;;25.24;49.60;96947.66;5086646;28;20059;-63
2021/08/31 08:41:33;;;;;;;10.73;8.73;;;;;;;25.21;50.13;96931.59;5085068;28;20058;-63
2021/08/31 08:44:00;;;;;;;8.82;8.00;;;;;;;25.77;48.45;96950.28;5086545;28;20048;-63
2021/08/31 08:46:28;;;;;;;13.73;8.60;;;;;;;25.93;48.69;96942.22;5086478;28;20047;-63
2021/08/31 08:48:57;;;;;;;8.80;7.80;;;;;;;26.02;48.04;96939.41;5086432;28;20056;-64
2021/08/31 08:51:24;;;;;;;10.25;9.18;;;;;;;26.05;48.99;96934.84;5085847;28;20491;-62
2021/08/31 08:53:51;;;;;;;9.82;8.50;;;;;;;25.54;48.58;96933.88;5086566;28;20238;-62
2021/08/31 08:56:20;;;;;;;9.73;8.68;;;;;;;25.40;49.69;96931.66;5085088;28;20408;-62
2021/08/31 08:58:47;;;;;;;18.58;9.35;;;;;;;25.41;49.57;96904.84;5084170;28;20415;-63
2021/08/31 09:01:14;;;;;;;15.02;12.95;;;;;;;25.66;47.79;96916.69;5085385;28;20055;-62
2021/08/31 09:03:51;;;;;;;13.68;12.18;;;;;;;26.05;48.45;96920.66;5085574;28;20062;-62
2021/08/31 09:06:20;;;;;;;11.55;9.60;;;;;;;26.31;47.96;96916.16;5085797;28;20050;-62
2021/08/31 09:08:53;;;;;;;9.40;8.50;;;;;;;26.45;48.10;96926.84;5086347;28;20044;-62
2021/08/31 09:11:27;;;;;;;8.75;7.88;;;;;;;26.69;47.51;96924.91;5085700;28;20056;-62
2021/08/31 09:14:22;;;;;;;9.50;7.93;;;;;;;26.90;46.65;96914.56;5085730;28;20139;-61
2021/08/31 09:16:52;;;;;;;10.90;9.80;;;;;;;26.64;45.40;96865.88;5085449;28;20090;-62
2021/08/31 09:19:28;;;;;;;8.65;7.85;;;;;;;26.44;45.60;96823.81;5084826;28;20059;-62
2021/08/31 09:22:17;;;;;;;10.55;8.85;;;;;;;27.02;45.32;96908.66;5085392;28;20503;-64
2021/08/31 09:25:03;;;;;;;8.82;7.97;;;;;;;26.07;46.10;96906.75;5084034;28;20060;-63
2021/08/31 09:27:41;;;;;;;9.00;8.13;;;;;;;25.81;47.22;96900.63;5086002;28;20056;-62
2021/08/31 09:30:19;;;;;;;9.52;8.57;;;;;;;26.06;47.36;96902.34;5085917;28;20426;-64
2021/08/31 09:33:12;;;;;;;9.68;8.77;;;;;;;26.51;47.96;96890.84;5084134;28;20058;-62
2021/08/31 09:35:44;;;;;;;10.80;9.18;;;;;;;26.31;46.97;96830.94;5085542;28;20175;-62
2021/08/31 09:38:13;;;;;;;9.32;8.43;;;;;;;26.93;46.57;96894.47;5085798;28;20442;-62
2021/08/31 09:40:46;;;;;;;10.57;8.27;;;;;;;27.27;46.17;96891.13;5085406;28;20054;-63
2021/08/31 09:43:17;;;;;;;8.85;8.05;;;;;;;27.37;43.98;96852.81;5085321;28;20082;-63
2021/08/31 09:45:46;;;;;;;9.40;8.50;;;;;;;27.47;45.26;96882.78;5085161;28;20644;-63
2021/08/31 09:48:15;;;;;;;10.85;9.73;;;;;;;27.65;44.38;96876.13;5083325;28;20465;-62
2021/08/31 09:50:43;;;;;;;10.15;8.57;;;;;;;27.57;44.52;96875.72;5083816;28;20048;-63
2021/08/31 09:53:12;;;;;;;10.63;8.75;;;;;;;28.01;44.75;96876.63;5083938;28;20052;-63
2021/08/31 09:55:41;;;;;;;8.30;7.60;;;;;;;28.33;43.10;96871.22;5085620;28;20055;-62
2021/08/31 09:58:26;;;;;;;11.52;10.43;;;;;;;28.62;43.48;96871.22;5085248;28;20044;-63
2021/08/31 10:00:54;;;;;;;9.68;8.77;;;;;;;28.77;40.63;96869.13;5085084;28;20139;-63
2021/08/31 10:03:23;;;;;;;10.10;9.20;;;;;;;28.90;41.45;96850.41;5084650;28;20052;-63
2021/08/31 10:05:52;;;;;;;9.07;8.27;;;;;;;28.14;41.79;96865.72;5085097;28;20062;-62
2021/08/31 10:08:19;;;;;;;8.27;7.45;;;;;;;28.78;42.13;96856.44;5084929;28;20048;-62
2021/08/31 10:10:49;;;;;;;8.38;7.63;;;;;;;29.09;39.71;96851.75;5083124;28;20062;-62
2021/08/31 10:13:22;;;;;;;17.63;11.50;;;;;;;29.31;40.56;96846.31;5084799;28;20135;-62
2021/08/31 10:15:55;;;;;;;10.45;9.55;;;;;;;28.67;42.71;96867.66;5083526;28;20047;-62
2021/08/31 10:18:24;;;;;;;9.13;8.18;;;;;;;27.54;42.71;96813.28;5083539;28;20060;-63
2021/08/31 10:20:52;;;;;;;10.20;9.05;;;;;;;28.00;42.89;96851.47;5084056;28;20058;-63
2021/08/31 10:23:28;;;;;;;10.48;9.45;;;;;;;27.89;43.11;96845.56;5084637;28;20048;-64
2021/08/31 10:26:22;;;;;;;8.05;7.25;;;;;;;27.60;41.91;96846.28;5084209;28;20052;-63
2021/08/31 10:28:50;;;;;;;8.27;7.57;;;;;;;24.48;44.08;96493.59;5084422;28;20052;-62
2021/08/31 10:31:31;;;;;;;9.88;8.88;;;;;;;26.36;45.09;96833.16;5072777;28;20154;-62
2021/08/31 10:33:58;;;;;;;10.15;9.25;;;;;;;26.83;45.00;96827.56;5062473;28;20072;-63
2021/08/31 10:36:38;;;;;;;8.88;8.00;;;;;;;27.29;43.88;96820.31;5063453;28;20577;-62
2021/08/31 10:39:07;;;;;;;8.32;7.63;;;;;;;27.43;42.31;96824.47;5063643;28;20513;-62
2021/08/31 10:41:41;;;;;;;9.25;8.38;;;;;;;27.26;42.20;96821.28;5063784;28;20102;-62
2021/08/31 10:44:14;;;;;;;9.38;8.25;;;;;;;26.78;44.14;96825.38;5063571;28;20070;-63
2021/08/31 10:46:56;;;;;;;8.55;7.75;;;;;;;26.71;44.31;96831.44;5062376;28;20052;-61
2021/08/31 10:49:23;;;;;;;9.18;8.13;;;;;;;26.74;43.57;96816.25;5063034;28;20063;-62
2021/08/31 10:52:16;;;;;;;8.95;8.05;;;;;;;27.26;43.30;96814.78;5063826;28;20048;-61
2021/08/31 10:54:47;;;;;;;12.63;8.83;;;;;;;27.55;42.30;96815.66;5059395;28;20530;-62
2021/08/31 10:57:35;;;;;;;9.05;8.18;;;;;;;27.92;42.22;96822.59;5063877;28;20052;-62
2021/08/31 11:00:02;;;;;;;10.85;7.75;;;;;;;28.21;41.15;96815.31;5063887;28;20517;-62
2021/08/31 11:02:49;;;;;;;8.73;7.93;;;;;;;28.64;40.45;96808.78;5063498;28;20049;-64
2021/08/31 11:05:22;;;;;;;8.18;6.88;;;;;;;28.92;39.86;96807.13;5064008;28;20469;-63
2021/08/31 11:07:56;;;;;;;8.90;7.65;;;;;;;28.99;39.30;96796.06;5063705;28;20052;-62
2021/08/31 11:10:30;;;;;;;8.10;7.38;;;;;;;29.22;38.24;96797.97;5062099;28;20059;-63
2021/08/31 11:13:13;;;;;;;8.88;7.90;;;;;;;29.52;39.30;96809.97;5065438;28;20705;-63
2021/08/31 11:15:43;;;;;;;9.00;7.93;;;;;;;29.71;38.56;96799.84;5082583;28;20124;-61
2021/08/31 11:18:12;;;;;;;9.52;8.60;;;;;;;29.80;37.76;96778.91;5082607;28;20051;-63
2021/08/31 11:20:46;;;;;;;10.65;9.48;;;;;;;29.92;36.71;96797.72;5083562;28;20535;-63
2021/08/31 11:23:19;;;;;;;8.85;8.05;;;;;;;28.86;37.52;96797.69;5082129;28;20058;-63
2021/08/31 11:25:50;;;;;;;7.95;7.25;;;;;;;29.36;37.18;96793.44;5082241;28;20040;-62
2021/08/31 11:28:26;;;;;;;7.90;7.20;;;;;;;29.34;36.18;96758.91;5082235;28;20062;-63